Time;durP1;ratioP1;P1;durP2;ratioP2;P2;SDS_P1;SDS_P2;PMS_P1;PMS_P2;Temp;Humidity;BMP_temperature;BMP_pressure;BME280_temperature;BME280_humidity;BME280_pressure;Samples;Min_cycle;Max_cycle;Signal;HPM_P1;HPM_P2
2022/05/12 00:00:53;;;;;;;5.65;1.70;;;11.70;99.90;;;;;;5026932;28;20040;-64
2022/05/12 00:03:19;;;;;;;5.85;1.80;;;11.70;99.90;;;;;;5037586;28;20305;-64
2022/05/12 00:05:45;;;;;;;4.72;1.38;;;11.70;99.90;;;;;;5056053;28;20051;-64
2022/05/12 00:08:12;;;;;;;6.47;1.63;;;11.70;99.90;;;;;;5039124;28;20052;-64
2022/05/12 00:10:39;;;;;;;4.03;1.50;;;11.60;99.90;;;;;;5040051;28;20049;-64
2022/05/12 00:13:06;;;;;;;3.38;1.50;;;11.60;99.90;;;;;;5040796;28;20040;-64
2022/05/12 00:15:34;;;;;;;7.00;1.67;;;11.50;99.90;;;;;;5026425;28;20048;-64
2022/05/12 00:18:03;;;;;;;5.03;1.70;;;11.50;99.90;;;;;;5040365;28;20178;-64
2022/05/12 00:20:31;;;;;;;5.70;1.50;;;11.40;99.90;;;;;;5056882;28;20040;-64
2022/05/12 00:23:24;;;;;;;4.50;1.30;;;11.40;99.90;;;;;;5058749;28;20045;-64
2022/05/12 00:25:51;;;;;;;3.88;1.58;;;11.30;99.90;;;;;;5023701;28;20638;-63
2022/05/12 00:28:20;;;;;;;9.25;1.52;;;11.30;99.90;;;;;;5043180;28;20088;-63
2022/05/12 00:30:47;;;;;;;4.70;1.48;;;11.20;99.90;;;;;;5039870;28;20063;-64
2022/05/12 00:33:14;;;;;;;4.88;1.15;;;11.20;99.90;;;;;;5039969;28;20524;-64
2022/05/12 00:35:43;;;;;;;2.75;0.88;;;11.20;99.90;;;;;;5041806;28;20432;-64
2022/05/12 00:38:10;;;;;;;2.15;1.08;;;11.10;99.90;;;;;;5060040;28;20075;-64
2022/05/12 00:40:37;;;;;;;1.38;0.90;;;11.10;99.90;;;;;;5051335;28;20046;-64
2022/05/12 00:43:06;;;;;;;3.60;0.95;;;11.00;99.90;;;;;;5060068;28;20058;-64
2022/05/12 00:45:38;;;;;;;2.60;0.90;;;11.00;99.90;;;;;;5044376;28;20039;-64
2022/05/12 00:48:05;;;;;;;4.03;1.10;;;10.90;99.90;;;;;;5061452;28;20125;-64
2022/05/12 00:50:39;;;;;;;3.28;1.15;;;10.90;99.90;;;;;;5029731;28;21719;-64
2022/05/12 00:53:08;;;;;;;3.90;1.40;;;10.90;99.90;;;;;;5045604;28;20491;-64
2022/05/12 00:55:38;;;;;;;5.05;1.38;;;10.80;99.90;;;;;;5047566;28;20040;-64
2022/05/12 00:58:08;;;;;;;4.75;1.15;;;10.70;99.90;;;;;;5035774;28;20439;-64
2022/05/12 01:00:35;;;;;;;5.28;1.17;;;10.70;99.90;;;;;;5062187;28;20044;-63
2022/05/12 01:03:06;;;;;;;2.08;1.10;;;10.60;99.90;;;;;;5044483;28;20091;-64
2022/05/12 01:05:32;;;;;;;3.13;1.55;;;10.60;99.90;;;;;;5045422;28;20048;-64
2022/05/12 01:07:59;;;;;;;4.15;1.30;;;10.50;99.90;;;;;;5042782;28;20051;-63
2022/05/12 01:10:26;;;;;;;4.68;1.20;;;10.50;99.90;;;;;;5002351;28;20674;-64
2022/05/12 01:12:53;;;;;;;3.47;1.23;;;10.50;99.90;;;;;;5043052;28;20104;-64
2022/05/12 01:15:21;;;;;;;4.82;1.40;;;10.40;99.90;;;;;;5028738;28;20517;-64
2022/05/12 01:17:48;;;;;;;4.05;1.42;;;10.40;99.90;;;;;;5063019;28;20067;-64
2022/05/12 01:20:15;;;;;;;3.88;1.30;;;10.40;99.90;;;;;;5050693;28;20899;-64
2022/05/12 01:23:11;;;;;;;2.05;1.08;;;10.30;99.90;;;;;;5045709;28;20053;-64
2022/05/12 01:25:36;;;;;;;3.15;1.30;;;10.30;99.90;;;;;;5061775;28;20792;-64
2022/05/12 01:28:03;;;;;;;4.05;1.30;;;10.20;99.90;;;;;;5049087;28;20044;-63
2022/05/12 01:30:28;;;;;;;4.18;1.27;;;10.20;99.90;;;;;;5044721;28;20087;-64
2022/05/12 01:32:54;;;;;;;3.80;1.55;;;10.20;99.90;;;;;;5032843;28;20139;-64
2022/05/12 01:35:24;;;;;;;3.83;1.30;;;10.20;99.90;;;;;;5043163;28;20062;-64
2022/05/12 01:37:50;;;;;;;6.53;1.52;;;10.20;99.90;;;;;;5066662;28;20044;-64
2022/05/12 01:40:22;;;;;;;3.47;1.23;;;10.10;99.90;;;;;;5052851;28;20043;-64
2022/05/12 01:42:48;;;;;;;5.85;1.33;;;10.00;99.90;;;;;;5064958;28;20117;-64
2022/05/12 01:45:15;;;;;;;5.18;1.30;;;10.00;99.90;;;;;;5048921;28;20044;-64
2022/05/12 01:47:42;;;;;;;2.40;1.15;;;10.00;99.90;;;;;;5052746;28;20048;-64
2022/05/12 01:50:09;;;;;;;2.92;1.35;;;10.00;99.90;;;;;;5065408;28;20048;-64
2022/05/12 01:52:36;;;;;;;4.22;1.58;;;10.00;99.90;;;;;;5041952;28;20057;-64
2022/05/12 01:55:03;;;;;;;3.60;1.45;;;9.90;99.90;;;;;;5048296;28;20086;-64
2022/05/12 01:57:29;;;;;;;4.90;1.88;;;9.90;99.90;;;;;;5045563;28;20050;-63
2022/05/12 01:59:56;;;;;;;4.93;1.80;;;10.00;99.90;;;;;;5052986;28;20060;-64
2022/05/12 02:02:21;;;;;;;5.97;2.00;;;9.90;99.90;;;;;;5066418;28;20473;-64
2022/05/12 02:04:48;;;;;;;9.85;2.28;;;9.90;99.90;;;;;;5052033;28;20048;-64
2022/05/12 02:07:16;;;;;;;6.43;1.85;;;9.80;99.90;;;;;;5031861;28;20051;-64
2022/05/12 02:09:42;;;;;;;6.43;2.17;;;9.80;99.90;;;;;;5048535;28;20058;-63
2022/05/12 02:12:08;;;;;;;4.28;2.10;;;9.80;99.90;;;;;;5046629;28;20043;-64
2022/05/12 02:14:35;;;;;;;3.72;1.90;;;9.80;99.90;;;;;;5031427;28;20048;-64
2022/05/12 02:17:01;;;;;;;5.50;2.30;;;9.80;99.90;;;;;;5045119;28;20498;-64
2022/05/12 02:19:27;;;;;;;6.68;2.03;;;9.80;99.90;;;;;;5067702;28;20082;-64
2022/05/12 02:21:54;;;;;;;5.43;2.25;;;9.70;99.90;;;;;;5064984;28;20561;-64
2022/05/12 02:24:21;;;;;;;6.55;1.92;;;9.70;99.90;;;;;;5060648;28;20051;-64
2022/05/12 02:26:47;;;;;;;5.75;2.17;;;9.60;99.90;;;;;;5048224;28;20071;-64
2022/05/12 02:29:12;;;;;;;6.95;2.33;;;9.60;99.90;;;;;;5045015;28;20616;-64
2022/05/12 02:31:38;;;;;;;6.47;2.50;;;9.50;99.90;;;;;;5041236;28;20056;-64
2022/05/12 02:34:04;;;;;;;3.95;2.10;;;9.50;99.90;;;;;;5045149;28;20075;-64
2022/05/12 02:36:30;;;;;;;8.52;2.63;;;9.50;99.90;;;;;;5042248;28;20048;-64
2022/05/12 02:38:56;;;;;;;4.57;2.35;;;9.50;99.90;;;;;;5043275;28;20048;-63
2022/05/12 02:41:22;;;;;;;4.80;2.47;;;9.40;99.90;;;;;;5044108;28;20056;-64
2022/05/12 02:43:48;;;;;;;6.28;2.72;;;9.40;99.90;;;;;;5029914;28;20379;-64
2022/05/12 02:46:14;;;;;;;6.18;2.92;;;9.40;99.90;;;;;;5014607;28;20060;-64
2022/05/12 02:48:46;;;;;;;6.45;2.45;;;9.40;99.90;;;;;;5042220;28;20047;-64
2022/05/12 02:51:13;;;;;;;6.78;2.83;;;9.40;99.90;;;;;;5042579;28;20047;-64
2022/05/12 02:53:40;;;;;;;9.27;2.47;;;9.30;99.90;;;;;;5041732;28;20044;-64
2022/05/12 02:56:07;;;;;;;6.78;2.80;;;9.30;99.90;;;;;;5045693;28;20106;-64
2022/05/12 02:58:34;;;;;;;9.32;3.17;;;9.20;99.90;;;;;;5026878;28;20515;-64
2022/05/12 03:01:00;;;;;;;8.85;2.88;;;9.20;99.90;;;;;;5013284;28;20141;-64
2022/05/12 03:03:27;;;;;;;7.68;2.70;;;9.20;99.90;;;;;;5042646;28;20090;-64
2022/05/12 03:05:54;;;;;;;8.35;2.97;;;9.20;99.90;;;;;;5044651;28;20072;-64
2022/05/12 03:08:21;;;;;;;8.38;2.92;;;9.20;99.90;;;;;;5032242;28;20045;-64
2022/05/12 03:10:51;;;;;;;9.75;3.35;;;9.20;99.90;;;;;;5042416;28;20068;-64
2022/05/12 03:13:17;;;;;;;8.15;3.22;;;9.20;99.90;;;;;;5043830;28;20048;-64
2022/05/12 03:15:43;;;;;;;10.57;3.22;;;9.20;99.90;;;;;;5043151;28;20362;-64
2022/05/12 03:18:09;;;;;;;6.00;3.28;;;9.10;99.90;;;;;;5045208;28;20044;-64
2022/05/12 03:20:34;;;;;;;11.35;3.50;;;9.20;99.90;;;;;;5023672;28;20242;-64
2022/05/12 03:23:01;;;;;;;8.70;3.80;;;9.20;99.90;;;;;;5045586;28;20045;-64
2022/05/12 03:25:27;;;;;;;8.18;3.50;;;9.20;99.90;;;;;;5027316;28;20501;-64
2022/05/12 03:27:53;;;;;;;8.23;3.45;;;9.20;99.90;;;;;;5042913;28;20043;-64
2022/05/12 03:30:22;;;;;;;12.32;4.03;;;9.20;99.90;;;;;;5048909;28;20049;-64
2022/05/12 03:32:49;;;;;;;9.63;3.97;;;9.20;99.90;;;;;;5057424;28;20414;-64
2022/05/12 03:35:15;;;;;;;11.63;4.25;;;9.20;99.90;;;;;;5046508;28;20044;-64
2022/05/12 03:37:42;;;;;;;8.93;3.97;;;9.20;99.90;;;;;;5049651;28;20044;-64
2022/05/12 03:40:09;;;;;;;6.90;3.92;;;9.20;99.90;;;;;;5031248;28;20478;-64
2022/05/12 03:42:35;;;;;;;14.88;4.47;;;9.20;99.90;;;;;;5029393;28;20101;-64
2022/05/12 03:45:01;;;;;;;11.57;3.85;;;9.20;99.90;;;;;;5045139;28;20161;-64
2022/05/12 03:47:33;;;;;;;11.88;4.43;;;9.20;99.90;;;;;;5032237;28;20051;-64
2022/05/12 03:50:06;;;;;;;15.13;5.13;;;9.20;99.90;;;;;;5046660;28;20048;-64
2022/05/12 03:52:31;;;;;;;;;;;9.20;99.90;;;;;;5032779;28;20051;-64
2022/05/12 03:54:58;;;;;;;13.23;4.70;;;9.20;99.90;;;;;;5041931;28;19917;-64
2022/05/12 03:57:26;;;;;;;12.48;4.53;;;9.20;99.90;;;;;;5054600;28;20060;-64
2022/05/12 03:59:52;;;;;;;11.43;5.18;;;9.20;99.90;;;;;;5043371;28;20125;-64
2022/05/12 04:02:19;;;;;;;9.98;5.00;;;9.20;99.90;;;;;;5032544;28;20066;-64
2022/05/12 04:04:46;;;;;;;12.93;5.25;;;9.20;99.90;;;;;;5063628;28;20043;-63
2022/05/12 04:07:14;;;;;;;16.85;5.18;;;9.20;99.90;;;;;;5051590;28;20451;-64
2022/05/12 04:09:41;;;;;;;11.75;5.05;;;9.20;99.90;;;;;;5027937;28;20056;-64
2022/05/12 04:12:11;;;;;;;10.43;5.03;;;9.20;99.90;;;;;;5063346;28;20044;-63
2022/05/12 04:14:37;;;;;;;15.77;5.28;;;9.20;99.90;;;;;;5037050;28;20052;-63
2022/05/12 04:17:08;;;;;;;12.48;5.50;;;9.20;99.90;;;;;;5023462;28;20048;-64
2022/05/12 04:19:34;;;;;;;13.85;5.32;;;9.20;99.90;;;;;;5034431;28;20044;-65
2022/05/12 04:22:00;;;;;;;16.00;5.63;;;9.30;99.90;;;;;;5048729;28;20130;-64
2022/05/12 04:24:26;;;;;;;12.30;5.30;;;9.30;99.90;;;;;;5041802;28;20052;-64
2022/05/12 04:26:52;;;;;;;12.70;5.82;;;9.30;99.90;;;;;;5060255;28;20054;-64
2022/05/12 04:29:17;;;;;;;15.82;5.82;;;9.30;99.90;;;;;;5060829;28;20056;-64
2022/05/12 04:31:43;;;;;;;12.30;5.47;;;9.30;99.90;;;;;;5029270;28;20048;-63
2022/05/12 04:36:54;;;;;;;15.10;6.10;;;9.40;99.90;;;;;;5044690;28;20059;-64
2022/05/12 04:39:20;;;;;;;13.25;5.68;;;9.40;99.90;;;;;;5043216;28;20576;-64
2022/05/12 04:41:46;;;;;;;15.07;5.80;;;9.40;99.90;;;;;;5062623;28;20044;-64
2022/05/12 04:44:13;;;;;;;11.48;5.78;;;9.50;99.90;;;;;;5013257;28;20486;-64
2022/05/12 04:46:40;;;;;;;18.92;6.38;;;9.50;99.90;;;;;;5062633;28;20044;-64
2022/05/12 04:49:08;;;;;;;14.18;6.18;;;9.60;99.90;;;;;;5062263;28;20052;-64
2022/05/12 04:51:34;;;;;;;12.20;5.47;;;9.70;99.90;;;;;;5044644;28;20723;-64
2022/05/12 04:54:00;;;;;;;14.18;5.70;;;9.70;99.90;;;;;;5040135;28;20083;-64
2022/05/12 04:56:26;;;;;;;12.25;5.60;;;9.70;99.90;;;;;;5048689;28;20077;-64
2022/05/12 04:58:52;;;;;;;15.38;5.63;;;9.70;99.90;;;;;;5051060;28;20044;-64
2022/05/12 05:01:19;;;;;;;17.55;7.20;;;9.70;99.90;;;;;;5053152;28;20072;-64
2022/05/12 05:03:45;;;;;;;16.58;6.07;;;9.80;99.90;;;;;;5052041;28;20044;-64
2022/05/12 05:06:11;;;;;;;15.02;7.18;;;9.80;99.90;;;;;;5053753;28;20046;-64
2022/05/12 05:08:37;;;;;;;17.38;6.88;;;9.90;99.90;;;;;;5042310;28;20588;-64
2022/05/12 05:11:06;;;;;;;13.40;6.65;;;10.00;99.90;;;;;;5067114;28;20646;-64
2022/05/12 05:13:32;;;;;;;21.00;7.18;;;10.00;99.90;;;;;;5049228;28;20150;-64
2022/05/12 05:15:59;;;;;;;13.07;6.40;;;10.00;99.90;;;;;;5018905;28;20047;-64
2022/05/12 05:18:25;;;;;;;14.85;6.28;;;10.10;99.90;;;;;;5043932;28;20036;-64
2022/05/12 05:20:51;;;;;;;15.30;6.32;;;10.10;99.90;;;;;;5064512;28;20052;-64
2022/05/12 05:23:21;;;;;;;19.13;6.55;;;10.20;99.90;;;;;;5034480;28;20048;-64
2022/05/12 05:25:48;;;;;;;15.30;6.93;;;10.20;99.90;;;;;;5060904;28;20069;-64
2022/05/12 05:28:14;;;;;;;9.90;6.63;;;10.30;99.90;;;;;;5049305;28;20054;-64
2022/05/12 05:30:41;;;;;;;13.75;6.10;;;10.40;99.90;;;;;;5040045;28;20072;-64
2022/05/12 05:33:08;;;;;;;19.42;6.38;;;10.40;99.90;;;;;;5028257;28;20056;-64
2022/05/12 05:35:34;;;;;;;16.55;5.93;;;10.50;99.90;;;;;;5028960;28;20375;-64
2022/05/12 05:38:01;;;;;;;17.13;6.65;;;10.50;99.90;;;;;;5028169;28;20502;-64
2022/05/12 05:40:28;;;;;;;12.55;6.45;;;10.50;99.90;;;;;;5067759;28;20059;-63
2022/05/12 05:42:55;;;;;;;15.80;6.15;;;10.60;99.90;;;;;;5042954;28;20052;-64
2022/05/12 05:45:22;;;;;;;14.05;6.97;;;10.60;99.90;;;;;;5036147;28;20474;-64
2022/05/12 05:47:51;;;;;;;14.05;6.90;;;10.60;99.90;;;;;;5031498;28;20502;-64
2022/05/12 05:50:21;;;;;;;15.00;6.60;;;10.70;99.90;;;;;;5042761;28;20091;-64
2022/05/12 05:55:33;;;;;;;15.60;6.57;;;10.90;99.90;;;;;;5050678;28;20043;-64
2022/05/12 05:58:00;;;;;;;18.35;6.43;;;10.90;99.90;;;;;;5044597;28;20497;-64
2022/05/12 06:00:27;;;;;;;11.68;5.90;;;11.00;99.90;;;;;;5030741;28;20094;-64
2022/05/12 06:02:53;;;;;;;17.52;6.53;;;11.00;99.90;;;;;;5045955;28;20044;-64
2022/05/12 06:05:19;;;;;;;18.92;5.88;;;11.10;99.90;;;;;;5055369;28;20032;-64
2022/05/12 06:07:45;;;;;;;15.95;6.30;;;11.20;99.90;;;;;;5038819;28;20040;-64
2022/05/12 06:10:11;;;;;;;16.30;5.65;;;11.30;99.90;;;;;;5042153;28;20512;-64
2022/05/12 06:12:38;;;;;;;14.32;6.50;;;11.30;99.90;;;;;;5021459;28;20062;-63
2022/05/12 06:15:05;;;;;;;15.77;5.47;;;11.40;99.90;;;;;;5017574;28;20048;-60
2022/05/12 06:17:31;;;;;;;12.38;5.10;;;11.50;99.90;;;;;;5061630;28;20066;-60
2022/05/12 06:19:57;;;;;;;11.82;5.00;;;11.60;99.90;;;;;;5064876;28;20052;-60
2022/05/12 06:22:23;;;;;;;14.13;4.90;;;11.70;99.90;;;;;;5063230;28;20186;-60
2022/05/12 06:24:49;;;;;;;12.95;5.10;;;11.70;99.90;;;;;;5062193;28;20044;-60
2022/05/12 06:27:19;;;;;;;10.60;4.82;;;11.80;99.90;;;;;;5066251;28;20036;-60
2022/05/12 06:29:46;;;;;;;14.07;4.55;;;11.90;99.90;;;;;;5030977;28;20087;-59
2022/05/12 06:32:12;;;;;;;12.32;4.60;;;12.00;99.90;;;;;;5065364;28;20044;-60
2022/05/12 06:34:41;;;;;;;11.52;4.15;;;12.10;99.90;;;;;;5068441;28;20101;-60
2022/05/12 06:37:08;;;;;;;11.30;3.60;;;12.20;99.90;;;;;;5049579;28;20048;-60
2022/05/12 06:39:34;;;;;;;13.52;3.97;;;12.30;99.90;;;;;;5064055;28;20051;-60
2022/05/12 06:42:00;;;;;;;13.57;3.80;;;12.40;99.90;;;;;;5065717;28;20036;-60
2022/05/12 06:44:27;;;;;;;14.55;3.78;;;12.50;99.90;;;;;;5060312;28;20059;-60
2022/05/12 06:46:53;;;;;;;14.15;4.57;;;12.60;99.90;;;;;;5067896;28;20517;-59
2022/05/12 06:49:19;;;;;;;12.65;3.92;;;12.70;99.90;;;;;;5066855;28;20036;-59
2022/05/12 06:51:45;;;;;;;12.32;3.50;;;12.80;99.90;;;;;;5048868;28;20047;-59
2022/05/12 06:54:12;;;;;;;10.57;2.97;;;12.90;99.90;;;;;;5048959;28;20078;-59
2022/05/12 06:56:38;;;;;;;9.73;3.67;;;13.00;99.90;;;;;;5050881;28;20774;-60
2022/05/12 06:59:04;;;;;;;14.18;3.55;;;13.10;99.90;;;;;;5067694;28;20048;-59
2022/05/12 07:01:29;;;;;;;9.98;3.08;;;13.20;99.90;;;;;;5021975;28;20512;-60
2022/05/12 07:03:58;;;;;;;8.80;3.13;;;13.30;99.90;;;;;;5065263;28;20064;-60
2022/05/12 07:06:24;;;;;;;7.88;3.25;;;13.40;99.90;;;;;;5065681;28;20179;-59
2022/05/12 07:08:51;;;;;;;8.98;2.95;;;13.40;99.90;;;;;;5066360;28;20087;-59
2022/05/12 07:11:16;;;;;;;6.82;2.78;;;13.50;99.90;;;;;;5064613;28;20136;-59
2022/05/12 07:13:42;;;;;;;10.23;2.80;;;13.60;99.90;;;;;;5064637;28;20494;-60
2022/05/12 07:16:08;;;;;;;11.15;3.53;;;13.70;99.90;;;;;;5064784;28;20047;-60
2022/05/12 07:18:36;;;;;;;13.02;3.42;;;13.80;99.90;;;;;;5047419;28;20171;-59
2022/05/12 07:26:35;;;;;;;13.35;2.83;;;14.00;99.90;;;;;;5033483;28;20115;-60
2022/05/12 07:29:02;;;;;;;7.90;2.85;;;14.10;99.90;;;;;;5055171;28;20057;-60
2022/05/12 07:31:28;;;;;;;11.52;2.55;;;14.30;99.90;;;;;;5041051;28;20490;-59
2022/05/12 07:33:54;;;;;;;9.98;2.60;;;14.30;99.90;;;;;;5041596;28;20115;-60
2022/05/12 07:36:23;;;;;;;10.70;2.33;;;14.50;99.90;;;;;;5040980;28;20126;-59
2022/05/12 07:38:49;;;;;;;8.27;2.20;;;14.60;99.90;;;;;;5045921;28;20151;-59
2022/05/12 07:41:17;;;;;;;11.80;2.78;;;14.70;99.90;;;;;;5041960;28;20045;-60
2022/05/12 07:43:44;;;;;;;12.13;2.40;;;14.70;99.90;;;;;;5047014;28;20048;-59
2022/05/12 07:46:12;;;;;;;8.95;2.53;;;14.70;99.90;;;;;;5043578;28;20068;-60
2022/05/12 07:48:39;;;;;;;11.82;2.67;;;14.60;99.90;;;;;;5046619;28;20055;-60
2022/05/12 07:51:06;;;;;;;7.45;2.28;;;14.70;99.90;;;;;;5044269;28;20051;-60
2022/05/12 07:53:32;;;;;;;9.48;2.28;;;14.80;99.90;;;;;;5050278;28;20127;-59
2022/05/12 07:55:58;;;;;;;11.38;2.05;;;14.90;99.90;;;;;;5052224;28;20048;-59
2022/05/12 07:58:24;;;;;;;10.82;2.60;;;15.00;99.90;;;;;;5053667;28;20053;-60
2022/05/12 08:00:52;;;;;;;13.50;2.60;;;15.10;99.90;;;;;;5052305;28;20131;-59
2022/05/12 08:03:18;;;;;;;10.23;2.15;;;15.10;99.90;;;;;;5049348;28;20044;-60
2022/05/12 08:05:44;;;;;;;10.48;2.97;;;15.20;99.90;;;;;;5041615;28;20040;-60
2022/05/12 08:08:11;;;;;;;9.98;2.28;;;15.30;99.90;;;;;;5053892;28;20214;-60
2022/05/12 08:10:37;;;;;;;7.18;2.00;;;15.50;99.90;;;;;;5053606;28;20128;-60
2022/05/12 08:13:04;;;;;;;11.05;2.13;;;15.50;99.90;;;;;;5047011;28;20048;-60
2022/05/12 08:15:31;;;;;;;5.47;1.60;;;15.60;99.90;;;;;;5049652;28;20044;-60
2022/05/12 08:17:57;;;;;;;8.07;2.28;;;15.70;99.90;;;;;;5048608;28;20077;-59
2022/05/12 08:20:24;;;;;;;8.85;1.83;;;15.80;99.90;;;;;;5041459;28;20100;-59
2022/05/12 08:22:50;;;;;;;8.40;2.00;;;15.80;99.90;;;;;;5043138;28;20036;-60
2022/05/12 08:25:16;;;;;;;6.18;1.88;;;15.80;99.90;;;;;;5044925;28;20095;-59
2022/05/12 08:27:42;;;;;;;7.68;1.85;;;16.00;99.90;;;;;;5039734;28;20139;-60
2022/05/12 08:30:12;;;;;;;6.65;1.63;;;16.10;99.90;;;;;;5037639;28;20146;-60
2022/05/12 08:32:38;;;;;;;6.32;1.88;;;16.20;99.90;;;;;;5042994;28;20049;-60
2022/05/12 08:35:05;;;;;;;4.65;1.85;;;16.30;99.90;;;;;;5043477;28;20045;-60
2022/05/12 08:37:32;;;;;;;6.10;1.75;;;16.30;99.90;;;;;;5041038;28;20048;-60
2022/05/12 08:39:58;;;;;;;7.70;1.88;;;16.30;99.90;;;;;;5042811;28;20064;-60
2022/05/12 08:42:41;;;;;;;11.15;2.28;;;16.40;99.90;;;;;;5044604;28;20079;-60
2022/05/12 08:45:09;;;;;;;7.72;1.85;;;16.40;99.90;;;;;;5040123;28;20040;-60
2022/05/12 08:47:48;;;;;;;12.05;2.28;;;16.50;99.60;;;;;;5043122;28;20049;-60
2022/05/12 08:50:28;;;;;;;7.70;1.95;;;16.50;99.70;;;;;;5043567;28;20045;-60
2022/05/12 08:53:01;;;;;;;7.28;1.60;;;16.70;99.90;;;;;;5044123;28;20044;-59
2022/05/12 08:55:31;;;;;;;;;;;16.80;99.20;;;;;;5044394;28;20170;-60
2022/05/12 08:58:07;;;;;;;8.20;1.80;;;16.90;99.40;;;;;;5045276;28;19925;-60
2022/05/12 09:00:58;;;;;;;6.80;1.95;;;17.00;98.90;;;;;;5044676;28;20045;-60
2022/05/12 09:03:36;;;;;;;6.75;1.77;;;17.10;99.10;;;;;;5039367;28;20036;-60
2022/05/12 09:06:20;;;;;;;6.38;1.60;;;17.30;98.10;;;;;;5040299;28;20467;-60
2022/05/12 09:08:56;;;;;;;6.32;1.70;;;17.10;96.80;;;;;;5042999;28;20055;-60
2022/05/12 09:11:36;;;;;;;4.82;1.50;;;17.10;97.30;;;;;;5043732;28;20455;-60
2022/05/12 09:14:06;;;;;;;10.23;1.98;;;17.00;96.30;;;;;;5041324;28;20056;-60
2022/05/12 09:16:33;;;;;;;8.07;1.70;;;17.00;96.00;;;;;;5044654;28;20053;-60
2022/05/12 09:19:00;;;;;;;5.00;1.40;;;16.90;95.70;;;;;;5037746;28;20071;-60
2022/05/12 09:21:33;;;;;;;4.95;1.80;;;16.90;95.40;;;;;;5039141;28;20045;-60
2022/05/12 09:24:00;;;;;;;8.27;1.75;;;17.00;95.10;;;;;;5044301;28;20044;-60
2022/05/12 09:26:48;;;;;;;5.72;1.52;;;17.10;95.20;;;;;;5044983;28;20148;-60
2022/05/12 09:29:29;;;;;;;4.78;1.65;;;17.30;95.00;;;;;;5047322;28;20773;-60
2022/05/12 09:32:15;;;;;;;8.02;1.58;;;17.60;94.70;;;;;;5048835;28;20044;-60
2022/05/12 09:34:46;;;;;;;6.90;1.70;;;17.70;93.60;;;;;;5063508;28;20048;-60
2022/05/12 09:37:26;;;;;;;6.70;1.55;;;17.80;92.80;;;;;;5064617;28;20216;-60
2022/05/12 09:39:58;;;;;;;7.40;1.60;;;17.80;92.50;;;;;;5047255;28;20037;-60
2022/05/12 09:42:29;;;;;;;9.10;1.70;;;17.70;91.20;;;;;;5063475;28;20039;-59
2022/05/12 09:44:59;;;;;;;6.60;1.50;;;17.70;91.10;;;;;;5046180;28;20032;-60
2022/05/12 09:47:27;;;;;;;8.32;1.63;;;17.80;91.40;;;;;;5046232;28;20117;-60
2022/05/12 09:50:21;;;;;;;6.70;1.80;;;18.00;91.10;;;;;;5065229;28;20044;-60
2022/05/12 09:53:01;;;;;;;6.05;1.73;;;18.20;90.90;;;;;;5062219;28;20574;-59
2022/05/12 09:55:38;;;;;;;9.15;1.90;;;18.40;88.70;;;;;;5061389;28;20125;-60
2022/05/12 09:58:15;;;;;;;7.57;1.40;;;18.50;87.70;;;;;;5067837;28;20401;-60
2022/05/12 10:01:05;;;;;;;6.70;1.38;;;18.60;87.40;;;;;;5066128;28;20051;-59
2022/05/12 10:09:32;;;;;;;5.18;1.60;;;19.10;82.60;;;;;;5067242;28;20060;-60
2022/05/12 10:12:24;;;;;;;9.07;1.65;;;19.10;80.80;;;;;;5050061;28;20051;-60
2022/05/12 10:15:04;;;;;;;6.32;1.77;;;19.10;77.70;;;;;;5067525;28;20048;-60
2022/05/12 10:17:43;;;;;;;7.85;1.33;;;19.20;79.60;;;;;;5065766;28;20076;-60
2022/05/12 10:20:12;;;;;;;2.33;1.27;;;19.40;80.60;;;;;;5066477;28;20159;-60
2022/05/12 10:22:48;;;;;;;7.40;1.33;;;19.60;78.20;;;;;;5065194;28;20123;-60
2022/05/12 10:25:26;;;;;;;5.30;1.40;;;19.70;78.90;;;;;;5066335;28;20079;-60
2022/05/12 10:27:54;;;;;;;9.98;1.92;;;19.90;76.30;;;;;;5062704;28;20217;-60
2022/05/12 10:30:54;;;;;;;5.53;1.40;;;20.00;74.70;;;;;;5052773;28;20069;-60
2022/05/12 10:33:49;;;;;;;4.22;1.63;;;19.90;73.90;;;;;;5044215;28;20044;-60
2022/05/12 10:36:51;;;;;;;4.75;1.27;;;20.00;73.90;;;;;;5043996;28;20128;-60
2022/05/12 10:39:35;;;;;;;5.50;1.48;;;20.00;73.60;;;;;;5034439;28;20082;-60
2022/05/12 10:42:22;;;;;;;3.33;1.20;;;20.10;72.40;;;;;;5047129;28;20049;-60
2022/05/12 10:45:03;;;;;;;5.18;1.20;;;20.20;71.10;;;;;;5046466;28;20052;-59
2022/05/12 10:47:52;;;;;;;7.68;1.48;;;20.20;70.90;;;;;;5046157;28;20041;-60
2022/05/12 10:50:27;;;;;;;4.70;1.27;;;20.30;70.90;;;;;;5026812;28;20069;-60
2022/05/12 10:53:23;;;;;;;4.72;1.48;;;20.30;70.90;;;;;;5046733;28;20145;-60
2022/05/12 10:56:29;;;;;;;7.35;1.50;;;20.30;68.90;;;;;;5044710;28;20043;-61
2022/05/12 10:59:10;;;;;;;9.93;1.80;;;20.10;69.80;;;;;;5021687;28;20045;-61
2022/05/12 11:01:43;;;;;;;4.15;1.10;;;20.10;69.40;;;;;;5046336;28;20244;-60
2022/05/12 11:04:14;;;;;;;2.92;0.90;;;19.90;68.70;;;;;;5047180;28;20143;-60
2022/05/12 11:06:45;;;;;;;7.43;1.00;;;19.90;68.10;;;;;;5042291;28;20387;-61
2022/05/12 11:09:19;;;;;;;7.15;1.80;;;20.00;67.10;;;;;;5042864;28;20037;-60
2022/05/12 11:11:49;;;;;;;6.75;1.40;;;20.00;66.60;;;;;;5043376;28;20041;-60
2022/05/12 11:14:22;;;;;;;4.70;1.15;;;19.90;66.30;;;;;;5039651;28;20048;-60
2022/05/12 11:17:16;;;;;;;5.53;1.45;;;19.70;66.50;;;;;;5043519;28;20763;-60
2022/05/12 11:19:48;;;;;;;4.85;1.50;;;19.80;67.00;;;;;;5033479;28;20466;-60
2022/05/12 11:22:37;;;;;;;4.65;1.30;;;19.80;67.20;;;;;;5025228;28;20039;-60
2022/05/12 11:25:11;;;;;;;6.40;1.33;;;20.00;68.20;;;;;;5030421;28;20098;-60
2022/05/12 11:27:53;;;;;;;4.10;1.25;;;20.00;67.50;;;;;;5044697;28;20052;-60
2022/05/12 11:30:35;;;;;;;6.03;1.33;;;19.80;66.00;;;;;;5056600;28;20060;-60
2022/05/12 11:33:13;;;;;;;6.95;1.70;;;19.90;64.90;;;;;;5056494;28;20052;-60
2022/05/12 11:35:43;;;;;;;6.88;1.33;;;20.00;64.50;;;;;;5064163;28;20086;-60
2022/05/12 11:38:29;;;;;;;8.25;1.30;;;20.20;64.60;;;;;;5063853;28;20101;-60
2022/05/12 11:40:56;;;;;;;4.57;1.40;;;20.40;63.70;;;;;;5064869;28;20101;-60
2022/05/12 11:46:44;;;;;;;4.25;1.10;;;20.70;63.20;;;;;;5047397;28;20044;-60
2022/05/12 11:49:25;;;;;;;4.68;1.30;;;20.70;64.10;;;;;;5063274;28;20048;-60
2022/05/12 11:52:09;;;;;;;5.88;1.02;;;20.40;63.70;;;;;;5063793;28;20046;-60
2022/05/12 11:54:48;;;;;;;3.97;1.20;;;20.50;64.40;;;;;;5065256;28;20044;-60
2022/05/12 11:57:23;;;;;;;4.63;1.40;;;20.60;65.50;;;;;;5055975;28;20076;-60
2022/05/12 11:59:54;;;;;;;6.20;1.80;;;20.80;63.40;;;;;;5063329;28;20091;-60
2022/05/12 12:02:29;;;;;;;9.75;1.52;;;21.00;65.20;;;;;;5062568;28;20171;-60
2022/05/12 12:05:37;;;;;;;4.93;1.75;;;21.30;65.50;;;;;;5063265;28;20048;-60
2022/05/12 12:08:07;;;;;;;6.35;1.45;;;21.70;65.00;;;;;;5037044;28;20298;-60
2022/05/12 12:10:41;;;;;;;7.22;1.45;;;21.70;64.00;;;;;;5043999;28;20067;-60
2022/05/12 12:13:36;;;;;;;4.10;1.45;;;21.40;62.80;;;;;;5058885;28;20048;-60
2022/05/12 12:16:10;;;;;;;2.35;1.15;;;21.50;63.90;;;;;;5044277;28;20084;-61
2022/05/12 12:18:36;;;;;;;4.28;1.63;;;21.70;63.00;;;;;;5049205;28;20044;-61
2022/05/12 12:21:31;;;;;;;5.45;1.30;;;21.90;63.40;;;;;;5063594;28;20051;-60
2022/05/12 12:24:04;;;;;;;2.97;1.40;;;21.90;63.30;;;;;;5060432;28;20048;-61
2022/05/12 12:26:34;;;;;;;3.70;1.30;;;21.90;61.70;;;;;;5061159;28;20040;-61
2022/05/12 12:29:15;;;;;;;2.78;1.30;;;21.90;62.20;;;;;;5047827;28;20052;-61
2022/05/12 12:31:48;;;;;;;6.43;1.70;;;21.90;61.80;;;;;;5062924;28;20044;-61
2022/05/12 12:34:54;;;;;;;3.72;1.30;;;22.10;62.50;;;;;;5062109;28;20046;-60
2022/05/12 12:37:47;;;;;;;5.50;1.60;;;22.30;60.90;;;;;;5040603;28;20032;-61
2022/05/12 12:40:31;;;;;;;;;;;22.40;59.80;;;;;;5065296;28;20505;-61
2022/05/12 12:43:10;;;;;;;4.80;1.42;;;22.10;60.10;;;;;;5064001;28;20846;-61
2022/05/12 12:45:35;;;;;;;3.65;1.35;;;21.70;60.00;;;;;;5045491;28;20315;-61
2022/05/12 12:48:10;;;;;;;4.53;1.55;;;21.60;60.70;;;;;;5064215;28;20528;-61
2022/05/12 12:50:47;;;;;;;7.20;1.88;;;21.70;59.50;;;;;;5060589;28;20680;-61
2022/05/12 12:53:14;;;;;;;3.63;1.52;;;21.80;59.70;;;;;;5063169;28;20052;-61
2022/05/12 12:58:57;;;;;;;4.05;1.45;;;22.40;59.50;;;;;;5061602;28;22117;-61
2022/05/12 13:01:23;;;;;;;5.22;1.48;;;22.20;58.50;;;;;;5039529;28;20168;-61
2022/05/12 13:03:54;;;;;;;5.63;1.50;;;21.80;58.50;;;;;;5041596;28;20135;-61
2022/05/12 13:06:36;;;;;;;3.10;1.20;;;21.60;58.20;;;;;;5039468;28;20079;-61
2022/05/12 13:09:13;;;;;;;2.33;1.10;;;21.50;57.80;;;;;;5035944;28;20048;-61
2022/05/12 13:11:41;;;;;;;7.32;1.08;;;21.40;58.20;;;;;;5055905;28;20052;-61
2022/05/12 13:14:11;;;;;;;5.82;1.50;;;21.30;57.50;;;;;;5060257;28;20045;-60
2022/05/12 13:16:40;;;;;;;4.70;1.20;;;21.30;57.50;;;;;;5057130;28;20040;-61
2022/05/12 13:19:08;;;;;;;5.85;1.30;;;21.30;57.40;;;;;;5063048;28;20059;-61
2022/05/12 13:21:47;;;;;;;3.20;1.10;;;21.10;56.50;;;;;;5061701;28;20403;-62
2022/05/12 13:24:22;;;;;;;4.68;1.38;;;20.80;56.80;;;;;;5058052;28;20051;-61
2022/05/12 13:26:50;;;;;;;6.25;1.38;;;20.90;57.70;;;;;;5022642;28;20082;-62
2022/05/12 13:29:45;;;;;;;4.13;1.17;;;20.90;57.90;;;;;;5042637;28;20054;-61